sensor_id;sensor_type;location;lat;lon;timestamp;P1;durP1;ratioP1;P2;durP2;ratioP2
54983;SDS011;40884;53.562;9.940;2022-09-25T00:00:26;27.17;;;20.67;;
54983;SDS011;40884;53.562;9.940;2022-09-25T00:01:27;25.57;;;20.50;;
54983;SDS011;40884;53.562;9.940;2022-09-25T00:02:27;28.43;;;20.20;;
54983;SDS011;40884;53.562;9.940;2022-09-25T00:03:28;24.77;;;19.60;;
54983;SDS011;40884;53.562;9.940;2022-09-25T00:04:28;25.23;;;19.07;;
54983;SDS011;40884;53.562;9.940;2022-09-25T00:05:28;25.73;;;19.83;;
54983;SDS011;40884;53.562;9.940;2022-09-25T00:06:29;25.17;;;19.47;;
54983;SDS011;40884;53.562;9.940;2022-09-25T00:07:29;23.17;;;18.70;;
54983;SDS011;40884;53.562;9.940;2022-09-25T00:08:29;27.50;;;20.40;;
54983;SDS011;40884;53.562;9.940;2022-09-25T00:09:30;24.93;;;19.07;;
54983;SDS011;40884;53.562;9.940;2022-09-25T00:10:30;25.93;;;19.10;;
54983;SDS011;40884;53.562;9.940;2022-09-25T00:11:31;28.13;;;21.37;;
54983;SDS011;40884;53.562;9.940;2022-09-25T00:12:31;25.60;;;19.90;;
54983;SDS011;40884;53.562;9.940;2022-09-25T00:13:31;25.93;;;20.67;;
54983;SDS011;40884;53.562;9.940;2022-09-25T00:14:31;25.43;;;20.57;;
54983;SDS011;40884;53.562;9.940;2022-09-25T00:15:31;28.70;;;21.37;;
54983;SDS011;40884;53.562;9.940;2022-09-25T00:16:32;27.13;;;21.17;;
54983;SDS011;40884;53.562;9.940;2022-09-25T00:17:32;27.20;;;21.40;;
54983;SDS011;40884;53.562;9.940;2022-09-25T00:18:32;27.70;;;20.93;;
54983;SDS011;40884;53.562;9.940;2022-09-25T00:19:32;28.10;;;21.87;;
54983;SDS011;40884;53.562;9.940;2022-09-25T00:20:32;29.73;;;22.37;;
54983;SDS011;40884;53.562;9.940;2022-09-25T00:21:33;27.00;;;20.43;;
54983;SDS011;40884;53.562;9.940;2022-09-25T00:22:33;27.73;;;21.60;;
54983;SDS011;40884;53.562;9.940;2022-09-25T00:23:34;29.67;;;21.43;;
54983;SDS011;40884;53.562;9.940;2022-09-25T00:24:34;28.47;;;22.17;;
54983;SDS011;40884;53.562;9.940;2022-09-25T00:25:34;30.23;;;21.37;;
54983;SDS011;40884;53.562;9.940;2022-09-25T00:26:35;30.27;;;22.70;;
54983;SDS011;40884;53.562;9.940;2022-09-25T00:27:36;31.43;;;23.43;;
54983;SDS011;40884;53.562;9.940;2022-09-25T00:28:37;32.37;;;22.57;;
54983;SDS011;40884;53.562;9.940;2022-09-25T00:29:38;28.93;;;22.17;;
54983;SDS011;40884;53.562;9.940;2022-09-25T00:30:38;30.27;;;22.03;;
54983;SDS011;40884;53.562;9.940;2022-09-25T00:31:39;31.40;;;23.60;;
54983;SDS011;40884;53.562;9.940;2022-09-25T00:32:39;31.40;;;22.13;;
54983;SDS011;40884;53.562;9.940;2022-09-25T00:33:39;29.17;;;21.73;;
54983;SDS011;40884;53.562;9.940;2022-09-25T00:34:39;31.97;;;23.70;;
54983;SDS011;40884;53.562;9.940;2022-09-25T00:35:39;30.70;;;23.03;;
54983;SDS011;40884;53.562;9.940;2022-09-25T00:36:39;32.53;;;23.47;;
54983;SDS011;40884;53.562;9.940;2022-09-25T00:37:39;33.40;;;23.87;;
54983;SDS011;40884;53.562;9.940;2022-09-25T00:38:39;29.30;;;21.80;;
54983;SDS011;40884;53.562;9.940;2022-09-25T00:39:39;32.50;;;23.33;;
54983;SDS011;40884;53.562;9.940;2022-09-25T00:40:40;33.47;;;23.17;;
54983;SDS011;40884;53.562;9.940;2022-09-25T00:41:40;34.87;;;24.13;;
54983;SDS011;40884;53.562;9.940;2022-09-25T00:42:40;34.10;;;24.67;;
54983;SDS011;40884;53.562;9.940;2022-09-25T00:43:47;34.67;;;24.23;;
54983;SDS011;40884;53.562;9.940;2022-09-25T00:45:00;31.80;;;23.37;;
54983;SDS011;40884;53.562;9.940;2022-09-25T00:46:01;32.37;;;23.73;;
54983;SDS011;40884;53.562;9.940;2022-09-25T00:47:01;33.67;;;23.93;;
54983;SDS011;40884;53.562;9.940;2022-09-25T00:48:03;33.13;;;24.00;;
54983;SDS011;40884;53.562;9.940;2022-09-25T00:49:14;32.73;;;23.40;;
54983;SDS011;40884;53.562;9.940;2022-09-25T00:51:34;34.97;;;25.33;;
54983;SDS011;40884;53.562;9.940;2022-09-25T00:52:35;38.60;;;25.30;;
54983;SDS011;40884;53.562;9.940;2022-09-25T00:53:36;31.97;;;23.03;;
54983;SDS011;40884;53.562;9.940;2022-09-25T00:54:38;33.20;;;22.87;;
54983;SDS011;40884;53.562;9.940;2022-09-25T00:55:41;30.50;;;22.17;;
54983;SDS011;40884;53.562;9.940;2022-09-25T00:56:43;32.37;;;23.37;;
54983;SDS011;40884;53.562;9.940;2022-09-25T00:57:45;32.87;;;23.13;;
54983;SDS011;40884;53.562;9.940;2022-09-25T00:58:45;30.07;;;22.17;;
54983;SDS011;40884;53.562;9.940;2022-09-25T00:59:47;28.73;;;21.80;;
54983;SDS011;40884;53.562;9.940;2022-09-25T01:00:49;30.47;;;20.63;;
54983;SDS011;40884;53.562;9.940;2022-09-25T01:01:50;25.43;;;20.13;;
54983;SDS011;40884;53.562;9.940;2022-09-25T01:02:51;27.83;;;21.20;;
54983;SDS011;40884;53.562;9.940;2022-09-25T01:03:51;28.27;;;20.97;;
54983;SDS011;40884;53.562;9.940;2022-09-25T01:04:52;30.53;;;21.87;;
54983;SDS011;40884;53.562;9.940;2022-09-25T01:05:54;27.97;;;20.40;;
54983;SDS011;40884;53.562;9.940;2022-09-25T01:06:55;23.83;;;18.50;;
54983;SDS011;40884;53.562;9.940;2022-09-25T01:07:55;24.93;;;18.90;;
54983;SDS011;40884;53.562;9.940;2022-09-25T01:08:56;28.73;;;20.53;;
54983;SDS011;40884;53.562;9.940;2022-09-25T01:09:58;33.87;;;20.67;;
54983;SDS011;40884;53.562;9.940;2022-09-25T01:10:58;23.97;;;18.30;;
54983;SDS011;40884;53.562;9.940;2022-09-25T01:11:58;25.87;;;20.17;;
54983;SDS011;40884;53.562;9.940;2022-09-25T01:12:58;26.53;;;20.90;;
54983;SDS011;40884;53.562;9.940;2022-09-25T01:14:00;28.67;;;20.90;;
54983;SDS011;40884;53.562;9.940;2022-09-25T01:15:01;21.77;;;17.37;;
54983;SDS011;40884;53.562;9.940;2022-09-25T01:16:09;21.57;;;17.43;;
54983;SDS011;40884;53.562;9.940;2022-09-25T01:17:30;24.30;;;18.33;;
54983;SDS011;40884;53.562;9.940;2022-09-25T01:18:42;23.07;;;17.73;;
54983;SDS011;40884;53.562;9.940;2022-09-25T01:20:05;23.77;;;18.60;;
54983;SDS011;40884;53.562;9.940;2022-09-25T01:22:14;23.23;;;18.13;;
54983;SDS011;40884;53.562;9.940;2022-09-25T01:24:41;23.87;;;17.43;;
54983;SDS011;40884;53.562;9.940;2022-09-25T01:26:55;21.83;;;17.17;;
54983;SDS011;40884;53.562;9.940;2022-09-25T01:28:17;23.87;;;17.10;;
54983;SDS011;40884;53.562;9.940;2022-09-25T01:29:30;22.27;;;17.10;;
54983;SDS011;40884;53.562;9.940;2022-09-25T01:30:32;22.07;;;17.80;;
54983;SDS011;40884;53.562;9.940;2022-09-25T01:31:45;22.37;;;17.57;;
54983;SDS011;40884;53.562;9.940;2022-09-25T01:32:57;22.07;;;17.23;;
54983;SDS011;40884;53.562;9.940;2022-09-25T01:34:01;20.80;;;16.83;;
54983;SDS011;40884;53.562;9.940;2022-09-25T01:35:19;24.50;;;18.03;;
54983;SDS011;40884;53.562;9.940;2022-09-25T01:36:23;22.43;;;17.03;;
54983;SDS011;40884;53.562;9.940;2022-09-25T01:37:44;24.63;;;17.93;;
54983;SDS011;40884;53.562;9.940;2022-09-25T01:38:49;23.80;;;17.50;;
54983;SDS011;40884;53.562;9.940;2022-09-25T01:41:15;23.53;;;17.60;;
54983;SDS011;40884;53.562;9.940;2022-09-25T01:42:24;24.30;;;18.10;;
54983;SDS011;40884;53.562;9.940;2022-09-25T01:43:26;24.47;;;18.27;;
54983;SDS011;40884;53.562;9.940;2022-09-25T01:44:30;20.00;;;15.07;;
54983;SDS011;40884;53.562;9.940;2022-09-25T01:45:50;21.17;;;16.97;;
54983;SDS011;40884;53.562;9.940;2022-09-25T01:46:50;23.10;;;17.47;;
54983;SDS011;40884;53.562;9.940;2022-09-25T01:47:52;23.87;;;17.90;;
54983;SDS011;40884;53.562;9.940;2022-09-25T01:48:54;21.40;;;17.07;;
54983;SDS011;40884;53.562;9.940;2022-09-25T01:49:59;19.47;;;15.37;;
54983;SDS011;40884;53.562;9.940;2022-09-25T01:51:02;21.90;;;17.57;;
54983;SDS011;40884;53.562;9.940;2022-09-25T01:52:05;24.53;;;17.60;;
54983;SDS011;40884;53.562;9.940;2022-09-25T01:53:06;22.63;;;17.37;;
54983;SDS011;40884;53.562;9.940;2022-09-25T01:54:11;23.03;;;17.23;;
54983;SDS011;40884;53.562;9.940;2022-09-25T01:55:17;24.20;;;17.90;;
54983;SDS011;40884;53.562;9.940;2022-09-25T01:56:23;23.97;;;17.27;;
54983;SDS011;40884;53.562;9.940;2022-09-25T01:57:25;21.10;;;15.23;;
54983;SDS011;40884;53.562;9.940;2022-09-25T01:58:27;19.77;;;15.37;;
54983;SDS011;40884;53.562;9.940;2022-09-25T01:59:35;24.30;;;18.30;;
54983;SDS011;40884;53.562;9.940;2022-09-25T02:00:38;22.07;;;15.80;;
54983;SDS011;40884;53.562;9.940;2022-09-25T02:01:40;25.53;;;18.33;;
54983;SDS011;40884;53.562;9.940;2022-09-25T02:02:42;24.33;;;17.73;;
54983;SDS011;40884;53.562;9.940;2022-09-25T02:03:54;23.10;;;16.67;;
54983;SDS011;40884;53.562;9.940;2022-09-25T02:04:57;24.27;;;17.77;;
54983;SDS011;40884;53.562;9.940;2022-09-25T02:06:01;25.03;;;17.20;;
54983;SDS011;40884;53.562;9.940;2022-09-25T02:07:02;27.70;;;19.40;;
54983;SDS011;40884;53.562;9.940;2022-09-25T02:08:05;25.93;;;18.43;;
54983;SDS011;40884;53.562;9.940;2022-09-25T02:09:15;26.20;;;18.17;;
54983;SDS011;40884;53.562;9.940;2022-09-25T02:10:19;23.33;;;17.03;;
54983;SDS011;40884;53.562;9.940;2022-09-25T02:11:20;25.50;;;18.87;;
54983;SDS011;40884;53.562;9.940;2022-09-25T02:12:24;24.77;;;17.80;;
54983;SDS011;40884;53.562;9.940;2022-09-25T02:13:26;22.77;;;17.20;;
54983;SDS011;40884;53.562;9.940;2022-09-25T02:14:34;24.13;;;17.27;;
54983;SDS011;40884;53.562;9.940;2022-09-25T02:15:37;26.07;;;18.00;;
54983;SDS011;40884;53.562;9.940;2022-09-25T02:16:38;23.27;;;17.10;;
54983;SDS011;40884;53.562;9.940;2022-09-25T02:17:43;23.60;;;16.43;;
54983;SDS011;40884;53.562;9.940;2022-09-25T02:18:47;19.10;;;15.53;;
54983;SDS011;40884;53.562;9.940;2022-09-25T02:19:48;18.10;;;14.40;;
54983;SDS011;40884;53.562;9.940;2022-09-25T02:20:49;22.90;;;16.93;;
54983;SDS011;40884;53.562;9.940;2022-09-25T02:21:57;22.17;;;16.70;;
54983;SDS011;40884;53.562;9.940;2022-09-25T02:23:09;18.97;;;14.33;;
54983;SDS011;40884;53.562;9.940;2022-09-25T02:24:26;21.43;;;15.03;;
54983;SDS011;40884;53.562;9.940;2022-09-25T02:25:35;17.63;;;13.70;;
54983;SDS011;40884;53.562;9.940;2022-09-25T02:26:37;20.90;;;16.07;;
54983;SDS011;40884;53.562;9.940;2022-09-25T02:27:37;20.17;;;15.63;;
54983;SDS011;40884;53.562;9.940;2022-09-25T02:28:37;21.67;;;16.67;;
54983;SDS011;40884;53.562;9.940;2022-09-25T02:29:37;19.03;;;14.70;;
54983;SDS011;40884;53.562;9.940;2022-09-25T02:30:37;16.47;;;13.20;;
54983;SDS011;40884;53.562;9.940;2022-09-25T02:31:39;15.90;;;12.77;;
54983;SDS011;40884;53.562;9.940;2022-09-25T02:32:41;17.17;;;13.07;;
54983;SDS011;40884;53.562;9.940;2022-09-25T02:33:41;16.27;;;13.20;;
54983;SDS011;40884;53.562;9.940;2022-09-25T02:34:41;18.73;;;14.43;;
54983;SDS011;40884;53.562;9.940;2022-09-25T02:35:41;17.73;;;14.47;;
54983;SDS011;40884;53.562;9.940;2022-09-25T02:36:42;16.43;;;13.30;;
54983;SDS011;40884;53.562;9.940;2022-09-25T02:37:42;17.07;;;13.70;;
54983;SDS011;40884;53.562;9.940;2022-09-25T02:38:42;20.03;;;14.80;;
54983;SDS011;40884;53.562;9.940;2022-09-25T02:39:43;20.63;;;15.50;;
54983;SDS011;40884;53.562;9.940;2022-09-25T02:40:50;21.37;;;15.40;;
54983;SDS011;40884;53.562;9.940;2022-09-25T02:42:57;19.33;;;14.43;;
54983;SDS011;40884;53.562;9.940;2022-09-25T02:48:28;20.07;;;15.03;;
54983;SDS011;40884;53.562;9.940;2022-09-25T02:49:45;19.47;;;14.90;;
54983;SDS011;40884;53.562;9.940;2022-09-25T02:50:53;21.53;;;15.60;;
54983;SDS011;40884;53.562;9.940;2022-09-25T02:53:07;20.30;;;15.03;;
54983;SDS011;40884;53.562;9.940;2022-09-25T02:54:16;19.30;;;14.57;;
54983;SDS011;40884;53.562;9.940;2022-09-25T02:55:29;19.60;;;14.77;;
54983;SDS011;40884;53.562;9.940;2022-09-25T02:56:32;18.70;;;14.33;;
54983;SDS011;40884;53.562;9.940;2022-09-25T02:57:36;16.13;;;13.23;;
54983;SDS011;40884;53.562;9.940;2022-09-25T02:58:59;18.17;;;14.50;;
54983;SDS011;40884;53.562;9.940;2022-09-25T02:59:58;15.87;;;12.77;;
54983;SDS011;40884;53.562;9.940;2022-09-25T03:00:59;15.87;;;12.27;;
54983;SDS011;40884;53.562;9.940;2022-09-25T03:02:00;17.40;;;13.40;;
54983;SDS011;40884;53.562;9.940;2022-09-25T03:03:01;16.90;;;13.73;;
54983;SDS011;40884;53.562;9.940;2022-09-25T03:04:02;19.93;;;14.70;;
54983;SDS011;40884;53.562;9.940;2022-09-25T03:05:03;17.17;;;13.67;;
54983;SDS011;40884;53.562;9.940;2022-09-25T03:06:04;18.13;;;14.10;;
54983;SDS011;40884;53.562;9.940;2022-09-25T03:07:05;18.70;;;14.30;;
54983;SDS011;40884;53.562;9.940;2022-09-25T03:08:05;19.23;;;14.30;;
54983;SDS011;40884;53.562;9.940;2022-09-25T03:09:06;19.10;;;13.80;;
54983;SDS011;40884;53.562;9.940;2022-09-25T03:10:07;19.17;;;13.97;;
54983;SDS011;40884;53.562;9.940;2022-09-25T03:11:17;17.37;;;14.20;;
54983;SDS011;40884;53.562;9.940;2022-09-25T03:12:18;17.73;;;13.60;;
54983;SDS011;40884;53.562;9.940;2022-09-25T03:13:27;19.03;;;13.93;;
54983;SDS011;40884;53.562;9.940;2022-09-25T03:14:27;22.77;;;14.53;;
54983;SDS011;40884;53.562;9.940;2022-09-25T03:15:27;17.17;;;13.43;;
54983;SDS011;40884;53.562;9.940;2022-09-25T03:16:32;18.27;;;13.87;;
54983;SDS011;40884;53.562;9.940;2022-09-25T03:17:33;19.70;;;15.43;;
54983;SDS011;40884;53.562;9.940;2022-09-25T03:18:33;19.30;;;14.80;;
54983;SDS011;40884;53.562;9.940;2022-09-25T03:19:33;18.50;;;14.63;;
54983;SDS011;40884;53.562;9.940;2022-09-25T03:20:34;20.60;;;14.90;;
54983;SDS011;40884;53.562;9.940;2022-09-25T03:21:34;19.87;;;15.20;;
54983;SDS011;40884;53.562;9.940;2022-09-25T03:22:35;21.03;;;15.47;;
54983;SDS011;40884;53.562;9.940;2022-09-25T03:23:35;20.23;;;15.03;;
54983;SDS011;40884;53.562;9.940;2022-09-25T03:24:35;22.13;;;15.80;;
54983;SDS011;40884;53.562;9.940;2022-09-25T03:25:35;24.27;;;16.10;;
54983;SDS011;40884;53.562;9.940;2022-09-25T03:26:35;21.37;;;15.57;;
54983;SDS011;40884;53.562;9.940;2022-09-25T03:27:35;18.20;;;13.77;;
54983;SDS011;40884;53.562;9.940;2022-09-25T03:28:35;21.90;;;16.53;;
54983;SDS011;40884;53.562;9.940;2022-09-25T03:29:35;23.00;;;16.00;;
54983;SDS011;40884;53.562;9.940;2022-09-25T03:30:36;22.17;;;15.90;;
54983;SDS011;40884;53.562;9.940;2022-09-25T03:31:37;23.13;;;15.97;;
54983;SDS011;40884;53.562;9.940;2022-09-25T03:32:37;22.23;;;15.10;;
54983;SDS011;40884;53.562;9.940;2022-09-25T03:33:39;25.13;;;17.03;;
54983;SDS011;40884;53.562;9.940;2022-09-25T03:34:39;22.57;;;15.97;;
54983;SDS011;40884;53.562;9.940;2022-09-25T03:35:39;22.57;;;15.70;;
54983;SDS011;40884;53.562;9.940;2022-09-25T03:36:40;26.60;;;17.27;;
54983;SDS011;40884;53.562;9.940;2022-09-25T03:37:40;26.20;;;16.90;;
54983;SDS011;40884;53.562;9.940;2022-09-25T03:38:40;24.30;;;16.17;;
54983;SDS011;40884;53.562;9.940;2022-09-25T03:39:41;27.90;;;17.57;;
54983;SDS011;40884;53.562;9.940;2022-09-25T03:40:41;25.67;;;17.13;;
54983;SDS011;40884;53.562;9.940;2022-09-25T03:41:41;29.97;;;17.30;;
54983;SDS011;40884;53.562;9.940;2022-09-25T03:42:41;30.40;;;17.53;;
54983;SDS011;40884;53.562;9.940;2022-09-25T03:43:41;19.00;;;13.20;;
54983;SDS011;40884;53.562;9.940;2022-09-25T03:44:42;28.00;;;17.60;;
54983;SDS011;40884;53.562;9.940;2022-09-25T03:45:42;23.03;;;15.53;;
54983;SDS011;40884;53.562;9.940;2022-09-25T03:46:42;23.57;;;15.97;;
54983;SDS011;40884;53.562;9.940;2022-09-25T03:47:42;27.57;;;16.63;;
54983;SDS011;40884;53.562;9.940;2022-09-25T03:48:42;26.27;;;17.20;;
54983;SDS011;40884;53.562;9.940;2022-09-25T03:49:42;29.27;;;18.50;;
54983;SDS011;40884;53.562;9.940;2022-09-25T03:50:42;22.53;;;15.33;;
54983;SDS011;40884;53.562;9.940;2022-09-25T03:51:43;25.90;;;17.53;;
54983;SDS011;40884;53.562;9.940;2022-09-25T03:52:43;28.47;;;18.83;;
54983;SDS011;40884;53.562;9.940;2022-09-25T03:53:43;27.60;;;17.63;;
54983;SDS011;40884;53.562;9.940;2022-09-25T03:54:43;29.27;;;17.83;;
54983;SDS011;40884;53.562;9.940;2022-09-25T03:55:44;27.13;;;17.73;;
54983;SDS011;40884;53.562;9.940;2022-09-25T03:56:44;29.17;;;17.87;;
54983;SDS011;40884;53.562;9.940;2022-09-25T03:57:44;31.60;;;18.53;;
54983;SDS011;40884;53.562;9.940;2022-09-25T03:58:44;33.30;;;18.70;;
54983;SDS011;40884;53.562;9.940;2022-09-25T03:59:44;31.43;;;18.57;;
54983;SDS011;40884;53.562;9.940;2022-09-25T04:00:45;29.43;;;18.27;;
54983;SDS011;40884;53.562;9.940;2022-09-25T04:01:45;31.37;;;18.47;;
54983;SDS011;40884;53.562;9.940;2022-09-25T04:02:45;29.30;;;17.03;;
54983;SDS011;40884;53.562;9.940;2022-09-25T04:03:45;31.80;;;18.47;;
54983;SDS011;40884;53.562;9.940;2022-09-25T04:04:46;29.27;;;19.07;;
54983;SDS011;40884;53.562;9.940;2022-09-25T04:05:46;27.70;;;18.80;;
54983;SDS011;40884;53.562;9.940;2022-09-25T04:06:46;29.93;;;18.43;;
54983;SDS011;40884;53.562;9.940;2022-09-25T04:07:46;32.07;;;20.07;;
54983;SDS011;40884;53.562;9.940;2022-09-25T04:08:46;23.80;;;15.57;;
54983;SDS011;40884;53.562;9.940;2022-09-25T04:09:47;31.80;;;19.73;;
54983;SDS011;40884;53.562;9.940;2022-09-25T04:10:47;30.03;;;17.17;;
54983;SDS011;40884;53.562;9.940;2022-09-25T04:11:47;27.17;;;16.37;;
54983;SDS011;40884;53.562;9.940;2022-09-25T04:12:47;30.20;;;18.30;;
54983;SDS011;40884;53.562;9.940;2022-09-25T04:13:47;24.33;;;16.40;;
54983;SDS011;40884;53.562;9.940;2022-09-25T04:14:47;26.33;;;16.93;;
54983;SDS011;40884;53.562;9.940;2022-09-25T04:15:47;27.30;;;17.57;;
54983;SDS011;40884;53.562;9.940;2022-09-25T04:16:47;30.70;;;19.07;;
54983;SDS011;40884;53.562;9.940;2022-09-25T04:17:48;26.70;;;16.40;;
54983;SDS011;40884;53.562;9.940;2022-09-25T04:18:48;29.37;;;18.07;;
54983;SDS011;40884;53.562;9.940;2022-09-25T04:19:48;25.47;;;16.80;;
54983;SDS011;40884;53.562;9.940;2022-09-25T04:20:48;31.07;;;18.43;;
54983;SDS011;40884;53.562;9.940;2022-09-25T04:21:49;28.33;;;16.87;;
54983;SDS011;40884;53.562;9.940;2022-09-25T04:22:49;27.93;;;17.00;;
54983;SDS011;40884;53.562;9.940;2022-09-25T04:23:49;23.60;;;16.30;;
54983;SDS011;40884;53.562;9.940;2022-09-25T04:24:49;25.90;;;16.10;;
54983;SDS011;40884;53.562;9.940;2022-09-25T04:25:49;25.70;;;17.27;;
54983;SDS011;40884;53.562;9.940;2022-09-25T04:26:49;26.73;;;17.60;;
54983;SDS011;40884;53.562;9.940;2022-09-25T04:27:58;25.30;;;16.67;;
54983;SDS011;40884;53.562;9.940;2022-09-25T04:28:59;27.50;;;17.30;;
54983;SDS011;40884;53.562;9.940;2022-09-25T04:29:59;22.67;;;16.13;;
54983;SDS011;40884;53.562;9.940;2022-09-25T04:30:59;23.17;;;16.20;;
54983;SDS011;40884;53.562;9.940;2022-09-25T04:31:59;25.37;;;16.33;;
54983;SDS011;40884;53.562;9.940;2022-09-25T04:32:59;24.40;;;16.33;;
54983;SDS011;40884;53.562;9.940;2022-09-25T04:33:59;25.53;;;16.73;;
54983;SDS011;40884;53.562;9.940;2022-09-25T04:35:00;23.70;;;15.20;;
54983;SDS011;40884;53.562;9.940;2022-09-25T04:36:00;21.37;;;15.20;;
54983;SDS011;40884;53.562;9.940;2022-09-25T04:37:00;22.77;;;15.80;;
54983;SDS011;40884;53.562;9.940;2022-09-25T04:38:01;17.80;;;13.00;;
54983;SDS011;40884;53.562;9.940;2022-09-25T04:39:01;20.83;;;14.63;;
54983;SDS011;40884;53.562;9.940;2022-09-25T04:40:01;22.33;;;14.73;;
54983;SDS011;40884;53.562;9.940;2022-09-25T04:41:01;19.77;;;14.37;;
54983;SDS011;40884;53.562;9.940;2022-09-25T04:42:01;23.00;;;15.93;;
54983;SDS011;40884;53.562;9.940;2022-09-25T04:43:02;23.73;;;16.30;;
54983;SDS011;40884;53.562;9.940;2022-09-25T04:44:03;19.70;;;13.70;;
54983;SDS011;40884;53.562;9.940;2022-09-25T04:45:04;19.77;;;14.13;;
54983;SDS011;40884;53.562;9.940;2022-09-25T04:46:05;16.53;;;12.47;;
54983;SDS011;40884;53.562;9.940;2022-09-25T04:47:05;20.20;;;14.97;;
54983;SDS011;40884;53.562;9.940;2022-09-25T04:48:05;18.67;;;13.47;;
54983;SDS011;40884;53.562;9.940;2022-09-25T04:49:05;19.00;;;13.33;;
54983;SDS011;40884;53.562;9.940;2022-09-25T04:50:06;23.00;;;15.20;;
54983;SDS011;40884;53.562;9.940;2022-09-25T04:51:06;21.60;;;15.13;;
54983;SDS011;40884;53.562;9.940;2022-09-25T04:52:06;21.37;;;14.30;;
54983;SDS011;40884;53.562;9.940;2022-09-25T04:53:06;19.13;;;14.30;;
54983;SDS011;40884;53.562;9.940;2022-09-25T04:54:06;21.63;;;15.17;;
54983;SDS011;40884;53.562;9.940;2022-09-25T04:55:07;20.37;;;14.97;;
54983;SDS011;40884;53.562;9.940;2022-09-25T04:56:07;19.77;;;13.87;;
54983;SDS011;40884;53.562;9.940;2022-09-25T04:57:08;23.40;;;15.83;;
54983;SDS011;40884;53.562;9.940;2022-09-25T04:58:08;20.50;;;14.43;;
54983;SDS011;40884;53.562;9.940;2022-09-25T04:59:09;19.87;;;14.80;;
54983;SDS011;40884;53.562;9.940;2022-09-25T05:00:09;22.77;;;15.23;;
54983;SDS011;40884;53.562;9.940;2022-09-25T05:01:09;23.60;;;16.30;;
54983;SDS011;40884;53.562;9.940;2022-09-25T05:02:12;26.57;;;18.10;;
54983;SDS011;40884;53.562;9.940;2022-09-25T05:03:12;27.03;;;17.60;;
54983;SDS011;40884;53.562;9.940;2022-09-25T05:04:12;26.60;;;17.40;;
54983;SDS011;40884;53.562;9.940;2022-09-25T05:05:13;29.60;;;18.10;;
54983;SDS011;40884;53.562;9.940;2022-09-25T05:06:13;27.83;;;17.97;;
54983;SDS011;40884;53.562;9.940;2022-09-25T05:07:13;27.97;;;18.00;;
54983;SDS011;40884;53.562;9.940;2022-09-25T05:08:13;25.57;;;17.90;;
54983;SDS011;40884;53.562;9.940;2022-09-25T05:09:13;25.13;;;16.40;;
54983;SDS011;40884;53.562;9.940;2022-09-25T05:10:13;26.97;;;18.07;;
54983;SDS011;40884;53.562;9.940;2022-09-25T05:11:14;24.97;;;17.43;;
54983;SDS011;40884;53.562;9.940;2022-09-25T05:12:14;30.37;;;18.40;;
54983;SDS011;40884;53.562;9.940;2022-09-25T05:13:14;29.43;;;17.67;;
54983;SDS011;40884;53.562;9.940;2022-09-25T05:14:14;28.37;;;19.10;;
54983;SDS011;40884;53.562;9.940;2022-09-25T05:15:14;29.57;;;18.60;;
54983;SDS011;40884;53.562;9.940;2022-09-25T05:16:14;27.90;;;17.93;;
54983;SDS011;40884;53.562;9.940;2022-09-25T05:17:15;27.80;;;18.47;;
54983;SDS011;40884;53.562;9.940;2022-09-25T05:18:16;28.37;;;19.07;;
54983;SDS011;40884;53.562;9.940;2022-09-25T05:19:16;30.53;;;20.10;;
54983;SDS011;40884;53.562;9.940;2022-09-25T05:20:16;30.43;;;19.60;;
54983;SDS011;40884;53.562;9.940;2022-09-25T05:21:16;29.10;;;19.30;;
54983;SDS011;40884;53.562;9.940;2022-09-25T05:22:17;28.83;;;19.33;;
54983;SDS011;40884;53.562;9.940;2022-09-25T05:23:17;29.30;;;19.23;;
54983;SDS011;40884;53.562;9.940;2022-09-25T05:24:17;30.53;;;19.80;;
54983;SDS011;40884;53.562;9.940;2022-09-25T05:25:17;28.70;;;19.77;;
54983;SDS011;40884;53.562;9.940;2022-09-25T05:26:17;29.50;;;19.63;;
54983;SDS011;40884;53.562;9.940;2022-09-25T05:27:17;23.53;;;16.83;;
54983;SDS011;40884;53.562;9.940;2022-09-25T05:28:17;29.87;;;19.57;;
54983;SDS011;40884;53.562;9.940;2022-09-25T05:29:18;31.13;;;20.17;;
54983;SDS011;40884;53.562;9.940;2022-09-25T05:30:19;32.27;;;20.77;;
54983;SDS011;40884;53.562;9.940;2022-09-25T05:31:19;28.00;;;19.70;;
54983;SDS011;40884;53.562;9.940;2022-09-25T05:32:19;28.30;;;20.77;;
54983;SDS011;40884;53.562;9.940;2022-09-25T05:33:19;33.00;;;22.00;;
54983;SDS011;40884;53.562;9.940;2022-09-25T05:34:19;27.87;;;19.73;;
54983;SDS011;40884;53.562;9.940;2022-09-25T05:35:20;31.63;;;20.20;;
54983;SDS011;40884;53.562;9.940;2022-09-25T05:36:20;27.83;;;20.57;;
54983;SDS011;40884;53.562;9.940;2022-09-25T05:37:21;29.00;;;19.83;;
54983;SDS011;40884;53.562;9.940;2022-09-25T05:38:21;32.53;;;21.80;;
54983;SDS011;40884;53.562;9.940;2022-09-25T05:39:21;30.20;;;21.17;;
54983;SDS011;40884;53.562;9.940;2022-09-25T05:40:21;32.27;;;21.77;;
54983;SDS011;40884;53.562;9.940;2022-09-25T05:41:22;35.40;;;21.53;;
54983;SDS011;40884;53.562;9.940;2022-09-25T05:42:22;31.93;;;21.00;;
54983;SDS011;40884;53.562;9.940;2022-09-25T05:43:22;32.27;;;20.87;;
54983;SDS011;40884;53.562;9.940;2022-09-25T05:44:22;30.60;;;22.23;;
54983;SDS011;40884;53.562;9.940;2022-09-25T05:45:22;32.73;;;21.70;;
54983;SDS011;40884;53.562;9.940;2022-09-25T05:46:22;34.33;;;23.83;;
54983;SDS011;40884;53.562;9.940;2022-09-25T05:47:22;34.80;;;22.17;;
54983;SDS011;40884;53.562;9.940;2022-09-25T05:48:23;29.33;;;20.40;;
54983;SDS011;40884;53.562;9.940;2022-09-25T05:49:23;31.83;;;21.43;;
54983;SDS011;40884;53.562;9.940;2022-09-25T05:50:23;31.40;;;20.67;;
54983;SDS011;40884;53.562;9.940;2022-09-25T05:51:23;38.80;;;23.13;;
54983;SDS011;40884;53.562;9.940;2022-09-25T05:52:23;32.53;;;21.23;;
54983;SDS011;40884;53.562;9.940;2022-09-25T05:53:23;33.73;;;21.27;;
54983;SDS011;40884;53.562;9.940;2022-09-25T05:54:24;34.17;;;22.27;;
54983;SDS011;40884;53.562;9.940;2022-09-25T05:55:24;35.50;;;22.67;;
54983;SDS011;40884;53.562;9.940;2022-09-25T05:56:24;32.77;;;21.83;;
54983;SDS011;40884;53.562;9.940;2022-09-25T05:57:25;24.33;;;18.40;;
54983;SDS011;40884;53.562;9.940;2022-09-25T05:58:25;31.87;;;21.80;;
54983;SDS011;40884;53.562;9.940;2022-09-25T05:59:26;35.10;;;22.27;;
54983;SDS011;40884;53.562;9.940;2022-09-25T06:00:26;36.57;;;22.33;;
54983;SDS011;40884;53.562;9.940;2022-09-25T06:01:26;33.20;;;21.67;;
54983;SDS011;40884;53.562;9.940;2022-09-25T06:02:26;31.30;;;20.80;;
54983;SDS011;40884;53.562;9.940;2022-09-25T06:03:26;33.13;;;21.20;;
54983;SDS011;40884;53.562;9.940;2022-09-25T06:04:27;32.63;;;22.40;;
54983;SDS011;40884;53.562;9.940;2022-09-25T06:05:27;30.30;;;20.50;;
54983;SDS011;40884;53.562;9.940;2022-09-25T06:06:28;33.93;;;22.07;;
54983;SDS011;40884;53.562;9.940;2022-09-25T06:07:28;34.33;;;22.27;;
54983;SDS011;40884;53.562;9.940;2022-09-25T06:08:28;32.93;;;22.27;;
54983;SDS011;40884;53.562;9.940;2022-09-25T06:09:29;31.60;;;22.00;;
54983;SDS011;40884;53.562;9.940;2022-09-25T06:10:29;32.40;;;20.43;;
54983;SDS011;40884;53.562;9.940;2022-09-25T06:11:29;33.93;;;21.03;;
54983;SDS011;40884;53.562;9.940;2022-09-25T06:12:29;31.47;;;21.33;;
54983;SDS011;40884;53.562;9.940;2022-09-25T06:13:30;33.13;;;22.63;;
54983;SDS011;40884;53.562;9.940;2022-09-25T06:14:30;28.97;;;21.00;;